Duanesburg, New York
Current Conditions -  °F | °C
As of 10:30 PM on Monday 26 Jan 2015 (Local Time) from KALB Reporting Station
Light Snow Light Snow  
Wind Chill:   Ceiling: 3500
Heat Index: 16°   Visibility: 2mi
Dew Point:   Wind: 10mph
Humidity: 71%   Direction: 360°N
Pressure: 29.97"   Gusts: NA
Location:  42.76°N, 74.13°W
Report Text: KALB 270330Z 36009KT 2SM -SN SCT025 BKN035 OVC050 M09/M13 A2997 RMK AO2 P0000 T10891133 $
Loading
Personal Weather Stations






























Interactive Weather Map New forecast layout! Learn more

10-Day Weather Forecast

Advertisements
Track Severe Weather on mobile